Time;durP1;ratioP1;P1;durP2;ratioP2;P2;SDS_P1;SDS_P2;PMS_P1;PMS_P2;Temp;Humidity;BMP_temperature;BMP_pressure;BME280_temperature;BME280_humidity;BME280_pressure;Samples;Min_cycle;Max_cycle;Signal;HPM_P1;HPM_P2
2021/12/24 00:00:55;;;;;;;15.30;10.33;;;;;;;-0.93;64.32;95373.19;5057219;28;20512;-72
2021/12/24 00:03:22;;;;;;;18.10;10.03;;;;;;;-0.97;64.30;95356.50;5056818;28;20257;-72
2021/12/24 00:05:49;;;;;;;23.00;11.47;;;;;;;-1.04;65.36;95345.63;5056887;28;20234;-73
2021/12/24 00:08:16;;;;;;;16.00;10.20;;;;;;;-0.70;63.92;95331.97;5055792;28;20259;-72
2021/12/24 00:10:46;;;;;;;17.33;11.20;;;;;;;-0.32;65.23;95349.09;5056758;28;20236;-72
2021/12/24 00:13:18;;;;;;;21.70;10.33;;;;;;;0.05;63.22;95339.53;5057160;28;20602;-72
2021/12/24 00:16:03;;;;;;;23.33;10.10;;;;;;;-0.17;62.57;95343.44;5056380;28;20301;-71
2021/12/24 00:18:39;;;;;;;13.17;10.00;;;;;;;-0.63;64.00;95329.53;5056150;28;20200;-70
2021/12/24 00:35:11;;;;;;;16.70;11.40;;;;;;;0.86;63.43;95353.66;5057116;28;20593;-71
2021/12/24 00:37:38;;;;;;;16.80;11.07;;;;;;;0.49;62.36;95360.84;5055482;28;20230;-72
2021/12/24 00:40:12;;;;;;;21.00;10.33;;;;;;;0.56;63.77;95339.22;5057263;28;20264;-71
2021/12/24 00:42:43;;;;;;;22.20;10.73;;;;;;;0.08;64.31;95340.41;5055516;28;20221;-74
2021/12/24 00:45:11;;;;;;;16.50;10.50;;;;;;;-0.15;65.59;95337.66;5057240;28;20232;-73
2021/12/24 00:47:38;;;;;;;16.47;10.67;;;;;;;-0.17;65.49;95334.28;5056239;28;20203;-74
2021/12/24 00:50:11;;;;;;;18.60;11.87;;;;;;;-0.46;66.06;95335.59;5062780;28;20264;-76
2021/12/24 00:52:49;;;;;;;18.67;9.70;;;;;;;-0.15;66.41;95332.66;5063937;28;20195;-72
2021/12/24 00:55:16;;;;;;;20.17;10.20;;;;;;;-0.05;65.22;95324.47;5061979;28;20210;-77
2021/12/24 00:57:45;;;;;;;20.57;10.20;;;;;;;-0.64;64.76;95315.41;5058562;28;20317;-78
2021/12/24 01:00:16;;;;;;;17.50;9.33;;;;;;;-0.37;66.47;95310.75;5056457;28;20281;-75
2021/12/24 01:02:44;;;;;;;16.23;9.63;;;;;;;-0.55;65.20;95310.53;5058434;28;20293;-76
2021/12/24 01:05:13;;;;;;;15.43;10.10;;;;;;;-0.89;65.82;95309.22;5056824;28;20320;-76
2021/12/24 01:07:41;;;;;;;14.37;8.70;;;;;;;-1.06;66.39;95313.97;5056767;28;20407;-76
2021/12/24 01:10:09;;;;;;;13.20;8.73;;;;;;;-1.18;67.43;95321.25;5054518;28;20213;-79
2021/12/24 01:12:36;;;;;;;25.13;10.23;;;;;;;-1.07;67.50;95304.81;5053427;28;20698;-76
2021/12/24 01:15:06;;;;;;;13.57;9.03;;;;;;;-0.77;66.80;95295.28;5054552;28;20198;-76
2021/12/24 01:17:39;;;;;;;18.67;11.73;;;;;;;-0.54;66.40;95307.22;5054643;28;20284;-77
2021/12/24 01:20:15;;;;;;;55.30;21.33;;;;;;;-0.65;66.75;95303.72;5054807;28;20879;-76
2021/12/24 01:25:40;;;;;;;59.27;25.17;;;;;;;-0.59;68.36;95286.34;5055751;28;20230;-75
2021/12/24 01:39:20;;;;;;;57.93;26.30;;;;;;;-0.39;69.76;95270.78;5056022;28;20336;-74
2021/12/24 01:44:32;;;;;;;59.77;27.43;;;;;;;-0.51;69.18;95275.66;5055044;28;20209;-74
2021/12/24 01:47:01;;;;;;;47.37;24.40;;;;;;;-0.45;68.97;95287.34;5054986;28;20234;-75
2021/12/24 01:49:28;;;;;;;61.83;28.13;;;;;;;-0.47;70.34;95276.50;5056374;28;20203;-74
2021/12/24 01:51:56;;;;;;;64.50;29.00;;;;;;;-0.76;69.77;95277.00;5054303;28;20724;-74
2021/12/24 01:54:24;;;;;;;74.77;30.27;;;;;;;-0.72;70.02;95276.19;5053994;28;20207;-74
2021/12/24 01:56:51;;;;;;;70.87;28.33;;;;;;;-0.79;70.67;95269.47;5054722;28;20251;-75
2021/12/24 01:59:18;;;;;;;67.47;29.10;;;;;;;-0.77;70.94;95264.50;5055536;28;20326;-73
2021/12/24 02:01:44;;;;;;;60.57;29.03;;;;;;;-0.81;70.98;95258.63;5055833;28;20668;-73
2021/12/24 02:04:13;;;;;;;69.47;26.70;;;;;;;-0.60;71.91;95257.22;5054413;28;20211;-75
2021/12/24 02:06:41;;;;;;;62.73;27.93;;;;;;;-0.52;71.87;95248.16;5055370;28;20241;-75
2021/12/24 02:09:11;;;;;;;70.70;27.60;;;;;;;-0.65;71.38;95248.81;5054374;28;20202;-74
2021/12/24 02:11:40;;;;;;;58.80;27.90;;;;;;;-0.76;70.50;95242.06;5054914;28;20319;-74
2021/12/24 02:14:11;;;;;;;68.57;27.10;;;;;;;-0.86;71.22;95239.41;5054017;28;20225;-74
2021/12/24 02:16:55;;;;;;;57.63;27.27;;;;;;;-0.81;71.09;95238.66;5054300;28;20207;-74
2021/12/24 02:30:49;;;;;;;54.37;26.23;;;;;;;-0.91;71.84;95223.53;4979099;28;20837;-75
2021/12/24 02:33:16;;;;;;;60.03;28.53;;;;;;;-0.97;71.92;95211.00;4977776;28;20755;-73
2021/12/24 02:35:43;;;;;;;49.60;21.47;;;;;;;-1.08;71.15;95194.25;5010600;28;20210;-73
2021/12/24 02:38:12;;;;;;;36.80;18.73;;;;;;;-1.25;71.88;95190.72;5055281;28;20206;-73
2021/12/24 02:40:38;;;;;;;39.10;19.57;;;;;;;-1.15;71.94;95199.97;5053779;28;20199;-73
2021/12/24 02:43:10;;;;;;;45.83;19.37;;;;;;;-0.90;71.70;95198.63;5054525;28;20222;-73
2021/12/24 02:45:38;;;;;;;40.70;18.67;;;;;;;-0.98;70.45;95185.22;5054650;28;20222;-73
2021/12/24 02:48:24;;;;;;;49.47;20.27;;;;;;;-1.00;71.03;95201.00;5054305;28;20209;-73
2021/12/24 02:53:58;;;;;;;36.33;18.50;;;;;;;-1.21;71.79;95171.63;5054278;28;20240;-73
2021/12/24 02:56:30;;;;;;;34.37;16.00;;;;;;;-1.25;71.68;95175.75;5052064;28;20245;-74
2021/12/24 02:58:59;;;;;;;35.77;16.83;;;;;;;-1.30;71.03;95176.50;5054221;28;20359;-73
2021/12/24 03:01:29;;;;;;;36.77;16.73;;;;;;;-1.16;70.67;95160.88;5054821;28;20199;-74
2021/12/24 03:03:56;;;;;;;35.63;17.07;;;;;;;-1.42;71.75;95164.69;5054242;28;20294;-73
2021/12/24 03:06:24;;;;;;;38.07;17.77;;;;;;;-1.65;72.21;95178.47;5054634;28;20230;-73
2021/12/24 03:08:53;;;;;;;31.30;15.50;;;;;;;-1.55;71.65;95185.28;5056604;28;20235;-72
2021/12/24 03:11:20;;;;;;;32.37;16.17;;;;;;;-1.43;71.35;95176.31;5055428;28;21691;-73
2021/12/24 03:13:47;;;;;;;28.37;15.17;;;;;;;-1.23;72.31;95163.28;5055823;28;20203;-73
2021/12/24 03:16:14;;;;;;;33.60;14.83;;;;;;;-1.27;71.59;95156.59;5056137;28;20194;-74
2021/12/24 03:18:43;;;;;;;28.03;13.93;;;;;;;-1.42;70.25;95163.03;5056061;28;20202;-73
2021/12/24 03:21:15;;;;;;;28.47;14.80;;;;;;;-1.26;70.97;95148.31;5057443;28;20539;-73
2021/12/24 03:23:45;;;;;;;27.10;14.97;;;;;;;-1.40;71.80;95148.94;5057060;28;20295;-74
2021/12/24 03:26:15;;;;;;;28.07;14.80;;;;;;;-1.33;71.88;95162.34;5058272;28;20317;-73
2021/12/24 03:28:43;;;;;;;25.63;14.20;;;;;;;-1.38;71.85;95162.25;5057763;28;20210;-71
2021/12/24 03:31:11;;;;;;;24.47;13.97;;;;;;;-1.19;73.13;95160.00;5057459;28;20218;-74
2021/12/24 03:33:38;;;;;;;27.93;14.00;;;;;;;-1.19;72.42;95160.84;5057304;28;20199;-73
2021/12/24 03:36:07;;;;;;;38.20;15.70;;;;;;;-1.39;71.25;95157.25;5057192;28;20269;-72
2021/12/24 03:38:35;;;;;;;29.10;16.60;;;;;;;-1.48;72.89;95157.13;5058336;28;20691;-73
2021/12/24 03:41:03;;;;;;;39.00;17.30;;;;;;;-1.20;73.22;95158.31;5057229;28;20206;-73
2021/12/24 03:43:31;;;;;;;36.37;16.07;;;;;;;-1.10;73.17;95160.97;5058522;28;20198;-73
2021/12/24 03:46:02;;;;;;;30.70;16.27;;;;;;;-1.15;71.32;95141.78;5057844;28;20709;-73
2021/12/24 03:48:43;;;;;;;30.97;15.60;;;;;;;-1.49;71.86;95146.34;5056909;28;20638;-73
2021/12/24 03:51:26;;;;;;;31.40;15.83;;;;;;;-1.26;73.04;95140.81;5057760;28;20209;-74
2021/12/24 03:56:39;;;;;;;33.20;14.57;;;;;;;-1.28;72.06;95139.97;5057412;28;20227;-72
2021/12/24 03:59:08;;;;;;;26.63;14.00;;;;;;;-1.08;71.93;95138.53;5056372;28;20296;-73
2021/12/24 04:01:36;;;;;;;29.33;15.33;;;;;;;-0.93;72.22;95131.22;5056811;28;20878;-73
2021/12/24 04:04:04;;;;;;;32.07;17.03;;;;;;;-1.25;71.49;95128.38;5056938;28;20283;-71
2021/12/24 04:06:32;;;;;;;32.40;16.63;;;;;;;-1.38;72.10;95129.88;5055834;28;20384;-74
2021/12/24 04:08:59;;;;;;;32.17;15.77;;;;;;;-1.39;71.61;95123.19;5057563;28;20257;-74
2021/12/24 04:11:26;;;;;;;34.37;15.67;;;;;;;-1.35;72.70;95128.22;5056526;28;20242;-72
2021/12/24 04:13:53;;;;;;;41.47;16.93;;;;;;;-1.56;71.96;95123.81;5055999;28;20261;-72
2021/12/24 04:16:22;;;;;;;34.27;15.57;;;;;;;-1.57;72.56;95127.09;5056621;28;20230;-73
2021/12/24 04:18:56;;;;;;;28.40;17.00;;;;;;;-1.68;72.88;95129.44;5055724;28;20260;-74
2021/12/24 04:26:52;;;;;;;37.17;17.53;;;;;;;-1.85;73.96;95135.84;5055235;28;20257;-73
2021/12/24 04:29:19;;;;;;;32.80;17.67;;;;;;;-1.83;74.26;95141.69;5056544;28;20623;-72
2021/12/24 04:31:55;;;;;;;33.27;16.13;;;;;;;-1.78;74.73;95123.50;5057140;28;20218;-72
2021/12/24 04:34:26;;;;;;;35.97;17.50;;;;;;;-1.74;74.09;95125.22;5056948;28;20314;-72
2021/12/24 04:37:30;;;;;;;37.10;17.43;;;;;;;-1.89;74.71;95119.16;5055948;28;20288;-71
2021/12/24 04:39:54;;;;;;;37.23;16.87;;;;;;;-1.64;74.23;95120.34;5057316;28;20207;-72
2021/12/24 04:51:09;;;;;;;28.67;15.37;;;;;;;-1.30;73.39;95136.59;5053931;28;20663;-71
2021/12/24 05:01:51;;;;;;;31.03;15.20;;;;;;;-1.19;73.75;95140.06;5054899;28;20241;-74
2021/12/24 05:04:26;;;;;;;34.40;16.77;;;;;;;-1.64;73.86;95141.13;5056241;28;20795;-71
2021/12/24 05:07:03;;;;;;;34.60;16.83;;;;;;;-1.46;75.03;95141.38;5054660;28;20230;-72
2021/12/24 05:09:31;;;;;;;33.97;18.83;;;;;;;-1.45;75.03;95119.78;5057559;28;20209;-72
2021/12/24 05:11:58;;;;;;;38.37;19.73;;;;;;;-1.26;74.71;95130.84;5056445;28;20231;-73
2021/12/24 05:14:27;;;;;;;40.90;20.53;;;;;;;-1.24;73.60;95129.22;5055060;28;20199;-74
2021/12/24 05:17:05;;;;;;;36.80;19.80;;;;;;;-1.14;74.35;95138.47;5055021;28;20231;-73
2021/12/24 05:22:16;;;;;;;37.37;20.07;;;;;;;-1.28;74.81;95143.28;5027333;28;20622;-74
2021/12/24 05:24:43;;;;;;;42.53;20.93;;;;;;;-1.51;74.42;95140.50;5055656;28;21008;-73
2021/12/24 05:27:10;;;;;;;40.83;20.77;;;;;;;-1.77;75.71;95135.16;5054218;28;20295;-73
2021/12/24 05:29:36;;;;;;;44.77;20.40;;;;;;;-2.00;76.42;95131.47;5054598;28;20640;-72
2021/12/24 05:32:04;;;;;;;39.03;20.57;;;;;;;-1.91;76.94;95121.63;5055832;28;20878;-73
2021/12/24 05:34:31;;;;;;;47.27;22.50;;;;;;;-2.00;76.26;95140.59;5054458;28;20234;-73
2021/12/24 05:36:59;;;;;;;43.70;20.50;;;;;;;-2.00;77.08;95129.00;5055285;28;20219;-73
2021/12/24 05:39:26;;;;;;;36.60;19.47;;;;;;;-1.91;76.34;95120.78;5054464;28;20279;-73
2021/12/24 05:41:53;;;;;;;36.23;20.50;;;;;;;-2.15;76.98;95132.06;5055546;28;20293;-73
2021/12/24 05:44:20;;;;;;;32.93;18.37;;;;;;;-2.22;77.60;95130.28;5055492;28;20625;-73
2021/12/24 05:46:47;;;;;;;36.97;19.83;;;;;;;-2.24;78.11;95131.94;5054680;28;20303;-73
2021/12/24 05:49:15;;;;;;;32.57;18.00;;;;;;;-1.91;76.95;95111.69;5053982;28;20205;-73
2021/12/24 05:51:42;;;;;;;45.00;19.00;;;;;;;-2.11;77.72;95118.84;5055290;28;20198;-73
2021/12/24 05:54:10;;;;;;;31.90;18.90;;;;;;;-2.08;77.89;95108.94;5054328;28;20206;-73
2021/12/24 05:56:37;;;;;;;32.13;17.30;;;;;;;-1.69;77.34;95102.84;5054404;28;20205;-73
2021/12/24 05:59:05;;;;;;;35.40;17.90;;;;;;;-1.67;76.32;95091.25;5053599;28;20202;-72
2021/12/24 06:01:32;;;;;;;33.47;17.40;;;;;;;-1.82;76.20;95096.03;5053937;28;20247;-74
2021/12/24 06:03:59;;;;;;;42.27;20.40;;;;;;;-1.96;76.54;95090.00;5055678;28;21127;-73
2021/12/24 06:06:26;;;;;;;30.90;17.33;;;;;;;-1.97;77.14;95094.16;5053325;28;20234;-74
2021/12/24 06:08:52;;;;;;;32.93;18.23;;;;;;;-1.83;77.21;95097.69;5054052;28;20198;-74
2021/12/24 06:11:21;;;;;;;32.90;16.53;;;;;;;-1.70;76.07;95108.66;5054763;28;20284;-72
2021/12/24 06:13:52;;;;;;;40.50;18.80;;;;;;;-1.60;75.60;95102.16;5054985;28;20199;-73
2021/12/24 06:16:19;;;;;;;33.53;18.20;;;;;;;-1.37;74.79;95111.59;5053912;28;20647;-73
2021/12/24 06:18:47;;;;;;;33.00;18.40;;;;;;;-1.31;75.99;95105.84;5052270;28;20198;-73
2021/12/24 06:21:14;;;;;;;49.13;18.43;;;;;;;-1.40;75.58;95106.56;5053207;28;20202;-72
2021/12/24 06:23:43;;;;;;;41.17;18.80;;;;;;;-1.23;75.17;95120.88;5053414;28;20199;-71
2021/12/24 06:26:12;;;;;;;46.07;18.63;;;;;;;-1.28;74.12;95090.09;5052609;28;20205;-71
2021/12/24 06:28:40;;;;;;;43.17;19.70;;;;;;;-1.23;74.49;95134.19;5053166;28;20206;-74
2021/12/24 06:31:07;;;;;;;46.37;22.13;;;;;;;-0.97;74.21;95129.50;5052419;28;20316;-72
2021/12/24 06:33:35;;;;;;;51.83;21.73;;;;;;;-1.22;74.54;95140.00;5054285;28;20216;-73
2021/12/24 06:36:01;;;;;;;55.93;23.73;;;;;;;-1.26;75.41;95148.31;5054368;28;20202;-74
2021/12/24 06:38:29;;;;;;;54.53;23.80;;;;;;;-1.08;75.75;95153.50;5054983;28;20214;-72
2021/12/24 06:40:55;;;;;;;53.13;26.37;;;;;;;-0.92;74.79;95149.53;5055669;28;20244;-72
2021/12/24 06:43:22;;;;;;;48.87;25.60;;;;;;;-0.77;74.35;95148.06;5058389;28;20261;-73
2021/12/24 06:45:50;;;;;;;47.30;23.23;;;;;;;-0.71;74.53;95147.28;5058007;28;20202;-72
2021/12/24 06:48:18;;;;;;;44.13;21.80;;;;;;;-0.68;73.96;95150.63;5058139;28;20320;-73
2021/12/24 06:50:44;;;;;;;45.47;23.07;;;;;;;-0.49;73.84;95150.81;5058059;28;20205;-74
2021/12/24 06:53:11;;;;;;;54.13;24.97;;;;;;;-0.76;73.56;95123.94;5058057;28;20202;-72
2021/12/24 06:55:38;;;;;;;42.50;22.80;;;;;;;-0.64;73.58;95128.22;5058607;28;20263;-74
2021/12/24 06:58:05;;;;;;;47.40;22.67;;;;;;;-0.41;72.51;95111.81;5057221;28;20883;-74
2021/12/24 07:00:32;;;;;;;48.83;23.13;;;;;;;-0.32;71.79;95126.88;5058862;28;20206;-75
2021/12/24 07:03:00;;;;;;;54.37;26.03;;;;;;;-0.30;72.62;95132.72;5057492;28;20199;-72
2021/12/24 07:05:27;;;;;;;59.57;25.10;;;;;;;-0.40;72.47;95133.44;5057625;28;21433;-75
2021/12/24 07:07:54;;;;;;;49.50;23.83;;;;;;;-0.36;72.71;95137.66;5057920;28;20234;-71
2021/12/24 07:10:21;;;;;;;47.30;25.20;;;;;;;-0.57;72.18;95117.47;5057298;28;21223;-72
2021/12/24 07:12:48;;;;;;;46.23;21.53;;;;;;;-0.61;72.99;95125.75;5057543;28;20222;-73
2021/12/24 07:15:16;;;;;;;36.17;19.47;;;;;;;-0.38;72.25;95114.31;5058476;28;20666;-72
2021/12/24 07:17:43;;;;;;;45.23;20.33;;;;;;;-0.38;70.49;95129.31;5057705;28;20206;-72
2021/12/24 07:20:12;;;;;;;37.07;19.97;;;;;;;-0.37;70.77;95111.00;5057937;28;20593;-72
2021/12/24 07:22:39;;;;;;;47.07;20.13;;;;;;;-0.65;72.53;95119.06;5057755;28;20202;-71
2021/12/24 07:25:07;;;;;;;45.83;21.37;;;;;;;-0.49;72.21;95138.34;5056843;28;20327;-73
2021/12/24 07:27:34;;;;;;;38.13;19.40;;;;;;;-0.42;71.90;95132.59;5057959;28;20226;-73
2021/12/24 07:30:01;;;;;;;39.30;18.93;;;;;;;-0.32;71.47;95109.41;5057187;28;20226;-71
2021/12/24 07:32:27;;;;;;;45.90;19.90;;;;;;;-0.27;71.61;95124.41;5057941;28;20264;-72
2021/12/24 07:34:54;;;;;;;40.63;19.77;;;;;;;-0.28;70.59;95131.06;5056769;28;20650;-71
2021/12/24 07:37:22;;;;;;;44.47;20.30;;;;;;;-0.14;70.45;95107.03;5057522;28;20256;-73
2021/12/24 07:39:49;;;;;;;37.00;19.27;;;;;;;0.01;70.75;95138.78;5056241;28;21015;-74
2021/12/24 07:42:16;;;;;;;42.93;20.00;;;;;;;0.23;69.31;95104.81;5057030;28;20259;-73
2021/12/24 07:44:42;;;;;;;44.57;17.90;;;;;;;0.25;70.53;95128.13;5057413;28;20206;-72
2021/12/24 07:47:16;;;;;;;35.83;16.13;;;;;;;0.41;68.41;95114.94;5056470;28;20231;-72
2021/12/24 07:49:44;;;;;;;36.57;17.03;;;;;;;0.58;68.20;95128.34;5057944;28;20292;-73
2021/12/24 07:52:13;;;;;;;33.03;17.03;;;;;;;0.66;67.96;95106.75;5055312;28;20209;-73
2021/12/24 07:54:44;;;;;;;36.67;17.40;;;;;;;0.73;68.28;95117.63;5055558;28;20202;-73
2021/12/24 07:57:12;;;;;;;38.87;17.10;;;;;;;0.99;66.39;95121.03;5055697;28;20205;-73
2021/12/24 07:59:41;;;;;;;35.17;16.30;;;;;;;1.35;64.74;95122.84;5054400;28;20208;-73
2021/12/24 08:02:10;;;;;;;44.03;17.13;;;;;;;2.25;63.38;95124.59;5056614;28;20301;-72
2021/12/24 08:04:38;;;;;;;30.57;15.80;;;;;;;3.61;60.16;95114.94;5054645;28;20199;-72
2021/12/24 08:07:06;;;;;;;31.20;14.60;;;;;;;3.64;57.88;95118.28;5055645;28;20754;-72
2021/12/24 08:09:33;;;;;;;25.33;14.87;;;;;;;4.75;55.12;95091.34;5054775;28;20195;-74
2021/12/24 08:12:01;;;;;;;27.87;13.97;;;;;;;4.43;55.74;95104.25;5056775;28;20742;-75
2021/12/24 08:14:28;;;;;;;26.47;13.70;;;;;;;4.23;56.17;95111.13;5057476;28;20256;-74
2021/12/24 08:16:55;;;;;;;28.83;14.87;;;;;;;3.79;57.15;95124.88;5056925;28;20272;-74
2021/12/24 08:19:22;;;;;;;28.67;14.97;;;;;;;3.60;57.46;95113.28;5056063;28;20261;-73
2021/12/24 08:21:49;;;;;;;36.40;18.93;;;;;;;5.67;55.23;95091.88;5057341;28;20198;-73
2021/12/24 08:24:16;;;;;;;27.23;14.30;;;;;;;7.41;47.89;95086.31;5056932;28;20202;-74
2021/12/24 08:26:43;;;;;;;35.30;16.40;;;;;;;7.68;49.19;95093.28;5056901;28;20236;-75
2021/12/24 08:29:11;;;;;;;31.07;15.37;;;;;;;7.40;47.37;95072.00;5055561;28;20252;-74
2021/12/24 08:31:38;;;;;;;21.05;13.77;;;;;;;6.87;49.31;95066.34;5057085;28;20704;-76
2021/12/24 08:34:06;;;;;;;23.83;13.65;;;;;;;6.50;50.72;95056.06;5055952;28;20264;-76
2021/12/24 08:36:35;;;;;;;31.52;14.43;;;;;;;6.69;49.35;95032.13;5057115;28;20194;-74
2021/12/24 08:39:02;;;;;;;27.55;13.75;;;;;;;7.98;47.10;95045.38;5056351;28;20293;-76
2021/12/24 08:41:29;;;;;;;23.83;12.60;;;;;;;9.16;45.10;95031.31;5056574;28;20198;-76
2021/12/24 08:43:56;;;;;;;26.90;12.43;;;;;;;10.74;40.01;95031.41;5056794;28;20209;-76
2021/12/24 08:46:24;;;;;;;30.13;12.77;;;;;;;10.08;42.43;95032.75;5056097;28;20210;-76
2021/12/24 08:48:51;;;;;;;20.80;13.13;;;;;;;10.53;41.07;95047.41;5056117;28;20230;-75
2021/12/24 08:51:17;;;;;;;25.52;13.77;;;;;;;11.07;39.98;95043.84;5056377;28;20705;-78
2021/12/24 08:53:47;;;;;;;26.60;14.07;;;;;;;11.87;38.14;95048.47;5056230;28;20677;-77
2021/12/24 08:56:14;;;;;;;30.08;14.77;;;;;;;9.80;39.84;95035.34;5057293;28;20280;-76
2021/12/24 08:58:41;;;;;;;28.47;15.27;;;;;;;9.35;42.02;95057.00;5056333;28;20206;-77
2021/12/24 09:01:08;;;;;;;31.73;15.68;;;;;;;9.53;43.74;95053.94;5052409;28;20281;-75
2021/12/24 09:03:36;;;;;;;26.45;15.27;;;;;;;7.88;46.16;95044.78;5054410;28;20645;-74
2021/12/24 09:06:03;;;;;;;25.00;14.75;;;;;;;7.72;47.18;95039.22;5055640;28;20195;-74
2021/12/24 09:08:30;;;;;;;31.15;16.63;;;;;;;7.64;46.52;95045.34;5055834;28;20230;-74
2021/12/24 09:10:57;;;;;;;31.67;15.60;;;;;;;8.30;45.64;95042.91;5055564;28;20234;-76
2021/12/24 09:13:23;;;;;;;33.45;15.85;;;;;;;7.88;48.55;95029.59;5055704;28;20697;-73
2021/12/24 09:15:53;;;;;;;27.35;15.60;;;;;;;8.31;46.30;95023.50;5055794;28;20651;-75
2021/12/24 09:18:21;;;;;;;25.95;15.25;;;;;;;7.80;48.53;95041.59;5052777;28;20197;-75
2021/12/24 09:20:49;;;;;;;39.20;17.20;;;;;;;6.78;48.05;95024.41;5054581;28;20263;-75
2021/12/24 09:23:18;;;;;;;27.35;16.48;;;;;;;6.61;50.23;95028.94;5053383;28;20206;-73
2021/12/24 09:25:45;;;;;;;29.75;16.52;;;;;;;6.91;51.48;95029.22;5054511;28;20586;-74
2021/12/24 09:28:12;;;;;;;33.63;16.02;;;;;;;6.91;51.07;95019.13;5053589;28;20226;-73
2021/12/24 09:30:39;;;;;;;37.78;16.85;;;;;;;6.36;51.31;95018.47;5053456;28;20764;-72
2021/12/24 09:33:06;;;;;;;28.77;15.55;;;;;;;6.50;52.64;95030.81;5056221;28;20634;-75
2021/12/24 09:35:33;;;;;;;28.90;16.08;;;;;;;6.36;51.18;95003.31;5054138;28;20632;-74
2021/12/24 09:38:02;;;;;;;31.77;16.23;;;;;;;5.85;52.42;95009.22;5055277;28;20206;-73
2021/12/24 09:40:30;;;;;;;27.45;16.58;;;;;;;5.06;53.75;95006.19;5055117;28;20250;-74
2021/12/24 09:42:57;;;;;;;30.35;15.95;;;;;;;5.13;55.88;94992.66;5054208;28;20571;-73
2021/12/24 09:45:24;;;;;;;30.47;16.63;;;;;;;5.28;55.99;94987.41;5054704;28;20217;-75
2021/12/24 09:47:51;;;;;;;39.28;15.90;;;;;;;5.12;54.42;94996.03;5054389;28;20623;-74
2021/12/24 09:50:21;;;;;;;29.42;16.08;;;;;;;5.08;55.98;95007.00;5054537;28;20206;-75
2021/12/24 09:52:49;;;;;;;31.52;15.80;;;;;;;5.16;55.90;94987.59;5037087;28;20287;-73
2021/12/24 09:55:19;;;;;;;29.45;16.60;;;;;;;5.04;56.33;94991.09;5055744;28;20195;-73
2021/12/24 09:57:46;;;;;;;30.55;16.40;;;;;;;5.08;55.54;94987.69;5054305;28;20198;-73
2021/12/24 10:00:16;;;;;;;33.10;16.17;;;;;;;5.28;56.50;94972.28;5053919;28;20206;-75
2021/12/24 10:02:46;;;;;;;28.73;16.27;;;;;;;5.34;55.38;94959.59;5053422;28;20869;-75
2021/12/24 10:05:35;;;;;;;27.17;16.00;;;;;;;5.52;55.76;94955.13;5053668;28;20563;-74
2021/12/24 10:08:07;;;;;;;35.50;16.45;;;;;;;5.70;54.98;94949.78;5055180;28;20674;-74
2021/12/24 10:10:36;;;;;;;28.33;15.73;;;;;;;5.71;54.23;94936.31;5052834;28;20290;-74
2021/12/24 10:13:31;;;;;;;28.30;15.57;;;;;;;5.68;54.12;94941.44;5055025;28;20230;-72
2021/12/24 10:16:01;;;;;;;26.35;16.48;;;;;;;5.75;54.65;94953.06;5053764;28;20198;-74
2021/12/24 10:18:33;;;;;;;29.60;16.70;;;;;;;5.63;55.32;94945.72;5054199;28;20202;-74
2021/12/24 10:21:07;;;;;;;30.83;15.20;;;;;;;5.56;54.28;94944.16;5054208;28;20199;-72
2021/12/24 10:23:53;;;;;;;25.88;16.25;;;;;;;5.35;55.23;94936.06;5054872;28;20198;-73
2021/12/24 10:26:25;;;;;;;27.23;15.82;;;;;;;5.45;55.62;94940.09;5053233;28;20279;-74
2021/12/24 10:29:00;;;;;;;35.25;17.05;;;;;;;5.63;54.86;94920.50;5054089;28;20272;-75
2021/12/24 10:31:29;;;;;;;27.75;16.75;;;;;;;5.84;53.98;94911.75;5054110;28;20225;-75
2021/12/24 10:34:15;;;;;;;29.90;16.05;;;;;;;6.18;54.07;94907.78;5053923;28;20660;-75
2021/12/24 10:37:02;;;;;;;27.25;16.17;;;;;;;6.37;54.28;94893.09;5055022;28;20220;-75
2021/12/24 10:39:31;;;;;;;29.30;16.67;;;;;;;6.42;53.02;94901.44;5053647;28;20198;-75
2021/12/24 10:42:01;;;;;;;26.67;15.88;;;;;;;6.57;53.56;94906.16;5054609;28;20258;-73
2021/12/24 10:44:30;;;;;;;26.60;15.52;;;;;;;6.45;53.11;94893.75;5054439;28;20202;-75
2021/12/24 10:47:00;;;;;;;25.45;14.68;;;;;;;6.55;52.64;94907.03;5054172;28;20276;-76
2021/12/24 10:49:48;;;;;;;23.08;14.93;;;;;;;6.71;52.39;94899.09;5053806;28;20238;-76
2021/12/24 10:52:28;;;;;;;24.25;15.27;;;;;;;6.87;53.59;94888.69;5054872;28;20198;-76
2021/12/24 10:54:57;;;;;;;23.33;13.85;;;;;;;7.11;51.59;94878.84;5054507;28;21278;-75
2021/12/24 10:57:26;;;;;;;25.40;15.43;;;;;;;7.22;52.70;94871.00;5055064;28;20251;-76
2021/12/24 10:59:56;;;;;;;25.92;14.80;;;;;;;7.38;52.35;94872.31;5054008;28;20203;-75
2021/12/24 11:02:28;;;;;;;24.95;14.20;;;;;;;7.45;51.41;94865.41;5054747;28;20213;-76
2021/12/24 11:04:55;;;;;;;22.58;15.25;;;;;;;7.50;52.38;94856.84;5052999;28;21569;-77
2021/12/24 11:07:34;;;;;;;20.38;11.98;;;;;;;7.57;52.03;94844.88;5053698;28;20202;-75
2021/12/24 11:10:12;;;;;;;24.15;12.15;;;;;;;7.74;52.60;94850.31;5055073;28;20198;-75
2021/12/24 11:12:42;;;;;;;18.80;10.38;;;;;;;7.97;52.45;94842.13;5053260;28;20237;-75
2021/12/24 11:15:24;;;;;;;10.50;7.72;;;;;;;8.15;53.39;94835.75;5053480;28;20203;-76
2021/12/24 11:17:52;;;;;;;5.97;4.22;;;;;;;8.52;52.71;94826.25;5053278;28;20203;-74
2021/12/24 11:20:19;;;;;;;4.38;3.50;;;;;;;8.78;52.98;94835.59;5053641;28;20865;-74
2021/12/24 11:22:56;;;;;;;6.47;4.20;;;;;;;9.01;52.70;94826.47;5054978;28;20207;-74
2021/12/24 11:25:24;;;;;;;9.10;5.35;;;;;;;9.32;53.15;94829.69;5053855;28;20852;-70
2021/12/24 11:27:53;;;;;;;8.98;3.80;;;;;;;9.65;51.50;94821.84;5055405;28;20203;-74
2021/12/24 11:30:22;;;;;;;5.20;2.97;;;;;;;9.79;50.59;94812.88;5057908;28;20222;-76
2021/12/24 11:32:49;;;;;;;4.10;3.70;;;;;;;9.77;50.18;94811.28;5056420;28;20656;-74
2021/12/24 11:35:17;;;;;;;2.85;2.65;;;;;;;9.78;49.99;94808.69;5056367;28;20195;-73
2021/12/24 11:37:47;;;;;;;4.28;3.17;;;;;;;9.95;52.07;94810.63;5055969;28;20203;-68
2021/12/24 11:40:16;;;;;;;4.43;3.28;;;;;;;10.39;50.00;94811.63;5054997;28;20325;-67
2021/12/24 11:42:43;;;;;;;5.25;3.78;;;;;;;10.37;48.74;94815.09;5055585;28;20206;-67
2021/12/24 11:45:12;;;;;;;4.32;3.92;;;;;;;10.39;50.00;94828.56;5054596;28;20255;-68
2021/12/24 11:47:39;;;;;;;8.18;3.80;;;;;;;10.41;51.10;94825.06;5055239;28;20625;-66
2021/12/24 11:50:09;;;;;;;9.65;6.03;;;;;;;10.47;49.42;94821.47;5055500;28;20230;-66
2021/12/24 11:52:36;;;;;;;8.52;4.13;;;;;;;10.59;48.51;94820.22;5055489;28;20259;-69
2021/12/24 11:55:03;;;;;;;7.22;5.43;;;;;;;10.55;49.81;94817.78;5057396;28;20202;-66
2021/12/24 11:57:30;;;;;;;5.40;4.07;;;;;;;10.39;48.38;94815.88;5054211;28;20226;-66
2021/12/24 11:59:57;;;;;;;2.15;2.05;;;;;;;10.04;48.65;94804.41;5057305;28;20251;-68
2021/12/24 12:02:45;;;;;;;8.20;4.70;;;;;;;9.98;49.28;94797.84;5055746;28;20206;-67
2021/12/24 12:05:17;;;;;;;3.55;3.08;;;;;;;10.18;49.10;94815.72;5055590;28;20211;-72
2021/12/24 12:07:44;;;;;;;2.92;2.70;;;;;;;9.90;49.26;94802.34;5055808;28;20195;-72
2021/12/24 12:10:12;;;;;;;9.00;3.50;;;;;;;9.54;50.13;94812.88;5057619;28;20264;-73
2021/12/24 12:12:40;;;;;;;5.05;4.18;;;;;;;9.45;50.40;94808.09;5056084;28;20326;-72
2021/12/24 12:15:24;;;;;;;8.82;3.92;;;;;;;9.43;50.72;94802.25;5056534;28;20260;-72
2021/12/24 12:17:54;;;;;;;7.90;3.45;;;;;;;9.35;51.11;94814.38;5057111;28;20202;-71
2021/12/24 12:20:43;;;;;;;4.30;3.88;;;;;;;9.23;51.38;94816.47;5055280;28;20203;-72
2021/12/24 12:23:16;;;;;;;5.18;4.07;;;;;;;9.17;52.02;94804.81;5057511;28;20317;-72
2021/12/24 12:25:43;;;;;;;3.45;3.15;;;;;;;9.26;51.36;94794.38;5057498;28;20744;-72
2021/12/24 12:28:15;;;;;;;3.95;3.47;;;;;;;9.27;52.50;94793.50;5055001;28;20264;-71
2021/12/24 12:30:49;;;;;;;4.22;3.33;;;;;;;9.28;51.42;94797.69;5057718;28;20540;-72
2021/12/24 12:33:19;;;;;;;2.42;2.22;;;;;;;9.24;51.73;94791.06;5057163;28;20194;-70
2021/12/24 12:35:48;;;;;;;4.28;2.47;;;;;;;9.15;51.79;94791.38;5055423;28;20211;-73
2021/12/24 12:38:27;;;;;;;3.92;2.53;;;;;;;9.06;52.44;94776.47;5056790;28;20899;-70
2021/12/24 12:40:55;;;;;;;4.55;3.28;;;;;;;8.96;52.59;94770.03;5055756;28;20252;-73
2021/12/24 12:43:24;;;;;;;2.60;2.40;;;;;;;8.95;51.88;94778.50;5055908;28;20202;-73
2021/12/24 12:45:56;;;;;;;4.68;2.85;;;;;;;8.87;52.35;94766.09;5055876;28;20196;-71